createdAt,value
2019-04-20T00:00:10.950Z,9.64
2019-04-20T00:02:39.901Z,9.53
2019-04-20T00:05:09.429Z,9.59
2019-04-20T00:07:39.696Z,9.57
2019-04-20T00:10:15.054Z,9.60
2019-04-20T00:12:54.520Z,9.58
2019-04-20T00:15:11.578Z,9.57
2019-04-20T00:17:45.915Z,9.53
2019-04-20T00:20:20.087Z,9.37
2019-04-20T00:22:55.488Z,9.33
2019-04-20T00:25:52.220Z,9.16
2019-04-20T00:28:31.359Z,9.12
2019-04-20T00:31:04.237Z,9.14
2019-04-20T00:35:44.728Z,9.17
2019-04-20T00:38:14.092Z,9.16
2019-04-20T00:40:43.478Z,9.18
2019-04-20T00:43:19.420Z,9.20
2019-04-20T00:45:57.146Z,9.17
2019-04-20T00:48:22.577Z,9.18
2019-04-20T00:50:59.286Z,9.22
2019-04-20T00:53:25.988Z,9.17
2019-04-20T00:55:48.594Z,9.21
2019-04-20T00:58:27.023Z,9.30
2019-04-20T01:01:15.353Z,9.29
2019-04-20T01:03:34.106Z,9.23
2019-04-20T01:06:16.267Z,9.34
2019-04-20T01:08:46.617Z,9.34
2019-04-20T01:11:22.961Z,9.19
2019-04-20T01:13:52.690Z,9.11
2019-04-20T01:16:29.596Z,9.14
2019-04-20T01:18:49.213Z,9.08
2019-04-20T01:21:23.579Z,9.16
2019-04-20T01:23:56.192Z,9.17
2019-04-20T01:26:22.589Z,9.07
2019-04-20T01:29:06.767Z,9.03
2019-04-20T01:31:33.979Z,8.97
2019-04-20T01:34:05.046Z,9.01
2019-04-20T01:36:46.157Z,8.95
2019-04-20T01:39:09.424Z,8.86
2019-04-20T01:41:28.578Z,8.86
2019-04-20T01:43:58.575Z,8.84
2019-04-20T01:46:30.016Z,8.80
2019-04-20T01:49:05.666Z,8.75
2019-04-20T01:51:39.278Z,8.71
2019-04-20T01:54:16.054Z,8.59
2019-04-20T01:56:47.697Z,8.63
2019-04-20T01:59:21.418Z,8.59
2019-04-20T02:01:55.639Z,8.60
2019-04-20T02:04:30.974Z,8.53
2019-04-20T02:06:59.937Z,8.51
2019-04-20T02:09:30.869Z,8.63
2019-04-20T02:12:06.980Z,8.58
2019-04-20T02:14:40.491Z,8.54
2019-04-20T02:17:09.557Z,8.55
2019-04-20T02:19:42.805Z,8.53
2019-04-20T02:22:15.678Z,8.52
2019-04-20T02:24:37.003Z,8.59
2019-04-20T02:27:06.187Z,8.64
2019-04-20T02:30:02.520Z,8.66
2019-04-20T02:35:18.703Z,8.68
2019-04-20T02:37:58.473Z,8.80
2019-04-20T02:40:19.153Z,8.80
2019-04-20T02:42:51.537Z,8.72
2019-04-20T02:45:28.588Z,8.70
2019-04-20T02:47:53.500Z,8.74
2019-04-20T02:50:20.532Z,8.82
2019-04-20T02:52:56.333Z,8.76
2019-04-20T02:55:24.818Z,8.72
2019-04-20T03:00:18.285Z,8.74
2019-04-20T03:02:41.560Z,8.73
2019-04-20T03:05:13.339Z,8.66
2019-04-20T03:07:50.349Z,8.54
2019-04-20T03:10:17.769Z,8.57
2019-04-20T03:12:53.474Z,8.60
2019-04-20T03:15:29.518Z,8.62
2019-04-20T03:18:00.682Z,8.54
2019-04-20T03:20:32.291Z,8.55
2019-04-20T03:23:17.542Z,8.55
2019-04-20T03:25:49.729Z,8.54
2019-04-20T03:28:21.936Z,8.53
2019-04-20T03:31:25.068Z,8.57
2019-04-20T03:33:44.938Z,8.55
2019-04-20T03:36:09.326Z,8.62
2019-04-20T03:38:26.224Z,8.59
2019-04-20T03:40:49.628Z,8.52
2019-04-20T03:43:07.722Z,8.44
2019-04-20T03:45:44.591Z,8.45
2019-04-20T03:48:22.985Z,8.46
2019-04-20T03:50:56.615Z,8.55
2019-04-20T03:53:34.423Z,8.63
2019-04-20T03:56:03.829Z,8.69
2019-04-20T03:58:48.247Z,8.68
2019-04-20T04:01:32.769Z,8.82
2019-04-20T04:04:05.238Z,8.88
2019-04-20T04:06:24.260Z,8.94
2019-04-20T04:08:59.925Z,8.93
2019-04-20T04:11:32.654Z,8.95
2019-04-20T04:13:48.136Z,8.87
2019-04-20T04:16:21.561Z,9.09
2019-04-20T04:18:59.168Z,9.03
2019-04-20T04:21:35.514Z,9.10
2019-04-20T04:24:06.774Z,9.15
2019-04-20T04:26:39.177Z,9.22
2019-04-20T04:29:22.625Z,9.24
2019-04-20T04:31:50.785Z,9.39
2019-04-20T04:34:12.533Z,9.35
2019-04-20T04:36:52.401Z,9.33
2019-04-20T04:39:21.175Z,9.33
2019-04-20T04:41:52.348Z,9.52
2019-04-20T04:44:14.731Z,9.55
2019-04-20T04:46:33.882Z,9.55
2019-04-20T04:49:13.301Z,9.74
2019-04-20T04:51:47.078Z,10.11
2019-04-20T04:54:16.763Z,10.34
2019-04-20T04:56:35.646Z,10.08
2019-04-20T04:59:06.152Z,10.32
2019-04-20T05:01:38.614Z,10.60
2019-04-20T05:04:25.158Z,10.48
2019-04-20T05:06:53.580Z,10.43
2019-04-20T05:09:12.525Z,10.48
2019-04-20T05:11:40.682Z,10.45
2019-04-20T05:14:18.645Z,10.41
2019-04-20T05:16:58.291Z,10.43
2019-04-20T05:19:38.418Z,10.26
2019-04-20T05:22:11.120Z,10.49
2019-04-20T05:24:33.770Z,10.67
2019-04-20T05:27:13.417Z,10.56
2019-04-20T05:29:28.247Z,10.52
2019-04-20T05:31:58.681Z,10.35
2019-04-20T05:34:48.004Z,10.51
2019-04-20T05:37:20.938Z,10.42
2019-04-20T05:39:52.747Z,10.44
2019-04-20T05:42:24.603Z,10.44
2019-04-20T05:44:52.790Z,10.56
2019-04-20T05:47:22.687Z,10.55
2019-04-20T05:49:51.978Z,10.75
2019-04-20T05:52:35.092Z,10.71
2019-04-20T05:54:58.240Z,10.65
2019-04-20T05:57:31.943Z,10.73
2019-04-20T06:00:08.373Z,10.86
2019-04-20T06:02:32.084Z,11.01
2019-04-20T06:05:05.672Z,11.10
2019-04-20T06:07:34.766Z,11.26
2019-04-20T06:10:06.230Z,11.56
2019-04-20T06:12:35.789Z,11.61
2019-04-20T06:15:09.421Z,11.77
2019-04-20T06:18:03.875Z,12.44
2019-04-20T06:23:33.814Z,13.07
2019-04-20T06:28:43.903Z,13.42
2019-04-20T06:31:26.733Z,14.03
2019-04-20T06:34:28.006Z,14.40
2019-04-20T06:36:55.832Z,14.37
2019-04-20T06:39:20.261Z,14.31
2019-04-20T06:44:27.627Z,14.67
2019-04-20T06:46:59.027Z,14.61
2019-04-20T06:49:30.192Z,15.07
2019-04-20T06:51:58.662Z,15.13
2019-04-20T06:54:17.626Z,15.54
2019-04-20T06:56:59.918Z,15.17
2019-04-20T06:59:42.288Z,15.04
2019-04-20T07:02:15.300Z,15.24
2019-04-20T07:07:11.591Z,15.75
2019-04-20T07:09:47.354Z,15.32
2019-04-20T07:12:03.130Z,14.62
2019-04-20T07:14:28.930Z,13.84
2019-04-20T07:17:17.944Z,14.39
2019-04-20T07:19:42.469Z,15.53
2019-04-20T07:27:19.338Z,16.54
2019-04-20T07:30:08.042Z,16.69
2019-04-20T07:32:17.899Z,16.99
2019-04-20T07:34:55.775Z,16.97
2019-04-20T07:38:07.122Z,17.35
2019-04-20T07:40:05.959Z,17.51
2019-04-20T07:42:45.033Z,17.55
2019-04-20T07:45:07.234Z,17.45
2019-04-20T07:47:40.618Z,17.50
2019-04-20T07:50:05.159Z,17.89
2019-04-20T07:52:36.943Z,17.64
2019-04-20T07:55:33.325Z,17.78
2019-04-20T07:57:38.538Z,18.05
2019-04-20T08:00:13.493Z,18.35
2019-04-20T08:03:11.908Z,18.63
2019-04-20T08:08:28.294Z,18.34
2019-04-20T08:11:06.231Z,18.18
2019-04-20T08:13:42.134Z,17.86
2019-04-20T08:16:06.352Z,17.31
2019-04-20T08:18:40.239Z,17.36
2019-04-20T08:21:12.881Z,17.78
2019-04-20T08:23:44.461Z,18.83
2019-04-20T08:26:01.710Z,18.87
2019-04-20T08:28:37.204Z,18.69
2019-04-20T08:31:15.328Z,17.94
2019-04-20T08:34:01.902Z,17.94
2019-04-20T08:36:27.259Z,18.18
2019-04-20T08:39:19.953Z,17.90
2019-04-20T08:41:23.182Z,18.63
2019-04-20T08:44:02.862Z,17.57
2019-04-20T08:46:34.839Z,19.13
2019-04-20T08:49:01.553Z,19.47
2019-04-20T08:51:38.643Z,18.46
2019-04-20T08:54:03.609Z,17.50
2019-04-20T08:56:24.587Z,16.87
2019-04-20T08:58:46.115Z,16.75
2019-04-20T09:01:21.595Z,16.63
2019-04-20T09:04:01.426Z,16.23
2019-04-20T09:06:33.613Z,15.79
2019-04-20T09:09:03.648Z,15.31
2019-04-20T09:11:45.140Z,14.37
2019-04-20T09:13:55.750Z,13.33
2019-04-20T09:16:32.070Z,12.39
2019-04-20T09:18:59.924Z,11.37
2019-04-20T09:21:36.269Z,11.21
2019-04-20T09:24:19.979Z,11.10
2019-04-20T09:26:43.218Z,11.48
2019-04-20T09:29:12.555Z,12.11
2019-04-20T09:31:43.363Z,12.66
2019-04-20T09:34:20.286Z,13.22
2019-04-20T09:36:49.363Z,13.68
2019-04-20T09:39:30.662Z,13.90
2019-04-20T09:42:13.616Z,14.16
2019-04-20T09:44:48.732Z,14.44
2019-04-20T09:47:14.288Z,14.49
2019-04-20T09:49:55.053Z,14.90
2019-04-20T09:52:30.022Z,15.47
2019-04-20T09:55:03.086Z,16.24
2019-04-20T09:57:33.547Z,17.23
2019-04-20T10:00:07.218Z,16.31
2019-04-20T10:02:24.899Z,17.35
2019-04-20T10:04:53.509Z,17.89
2019-04-20T10:07:26.140Z,18.78
2019-04-20T10:09:55.674Z,19.19
2019-04-20T10:12:26.017Z,18.44
2019-04-20T10:15:04.216Z,19.07
2019-04-20T10:17:31.723Z,19.94
2019-04-20T10:20:08.637Z,19.97
2019-04-20T10:22:32.901Z,19.77
2019-04-20T10:25:06.702Z,18.18
2019-04-20T10:27:36.743Z,17.31
2019-04-20T10:30:06.614Z,16.63
2019-04-20T10:32:40.441Z,15.87
2019-04-20T10:35:08.604Z,15.93
2019-04-20T10:37:40.028Z,16.16
2019-04-20T10:40:09.697Z,16.10
2019-04-20T10:42:39.179Z,15.83
2019-04-20T10:45:08.924Z,15.82
2019-04-20T10:47:38.954Z,15.93
2019-04-20T10:50:09.248Z,16.00
2019-04-20T10:52:38.754Z,16.05
2019-04-20T10:55:08.515Z,16.27
2019-04-20T10:57:39.366Z,17.35
2019-04-20T11:00:10.674Z,18.48
2019-04-20T11:02:43.036Z,17.69
2019-04-20T11:05:12.683Z,16.02
2019-04-20T11:07:42.522Z,16.02
2019-04-20T11:10:19.815Z,15.88
2019-04-20T11:12:44.275Z,15.52
2019-04-20T11:15:14.589Z,15.29
2019-04-20T11:17:44.097Z,15.21
2019-04-20T11:20:15.097Z,14.94
2019-04-20T11:22:44.681Z,14.92
2019-04-20T11:25:16.466Z,15.02
2019-04-20T11:27:46.069Z,15.06
2019-04-20T11:30:16.147Z,15.23
2019-04-20T11:32:46.286Z,15.16
2019-04-20T11:35:23.811Z,15.28
2019-04-20T11:37:47.357Z,15.84
2019-04-20T11:40:17.066Z,17.17
2019-04-20T11:42:47.833Z,17.21
2019-04-20T11:45:18.421Z,17.31
2019-04-20T11:47:49.476Z,16.98
2019-04-20T11:50:19.835Z,17.10
2019-04-20T11:52:51.523Z,17.07
2019-04-20T11:55:22.290Z,17.18
2019-04-20T11:57:51.853Z,17.03
2019-04-20T12:00:25.326Z,18.02
2019-04-20T12:03:09.572Z,18.44
2019-04-20T12:05:39.652Z,19.35
2019-04-20T12:08:09.251Z,20.38
2019-04-20T12:10:43.857Z,20.53
2019-04-20T12:13:14.462Z,19.72
2019-04-20T12:15:43.887Z,19.37
2019-04-20T12:18:13.792Z,18.12
2019-04-20T12:20:43.322Z,17.99
2019-04-20T12:23:12.768Z,17.93
2019-04-20T12:25:44.304Z,17.63
2019-04-20T12:28:15.762Z,17.47
2019-04-20T12:30:45.964Z,17.53
2019-04-20T12:33:15.658Z,17.19
2019-04-20T12:35:45.445Z,17.44
2019-04-20T12:38:14.977Z,18.34
2019-04-20T12:40:44.446Z,17.99
2019-04-20T12:43:15.161Z,17.38
2019-04-20T12:45:44.689Z,17.36
2019-04-20T12:48:15.544Z,17.33
2019-04-20T12:50:45.716Z,17.53
2019-04-20T12:53:15.205Z,17.44
2019-04-20T12:55:44.591Z,17.27
2019-04-20T12:58:14.614Z,17.36
2019-04-20T13:00:49.254Z,17.62
2019-04-20T13:03:19.414Z,18.62
2019-04-20T13:05:50.035Z,19.48
2019-04-20T13:08:26.929Z,19.40
2019-04-20T13:10:52.793Z,19.08
2019-04-20T13:13:30.555Z,19.28
2019-04-20T13:16:20.630Z,20.97
2019-04-20T13:18:55.236Z,21.58
2019-04-20T13:21:25.171Z,21.34
2019-04-20T13:23:55.324Z,21.87
2019-04-20T13:26:27.038Z,21.87
2019-04-20T13:29:00.993Z,22.19
2019-04-20T13:31:31.667Z,22.12
2019-04-20T13:34:03.531Z,20.45
2019-04-20T13:36:34.586Z,21.45
2019-04-20T13:39:08.188Z,21.05
2019-04-20T13:41:38.133Z,20.10
2019-04-20T13:44:08.352Z,20.53
2019-04-20T13:46:38.865Z,19.73
2019-04-20T13:49:09.279Z,19.73
2019-04-20T13:51:39.121Z,19.30
2019-04-20T13:54:15.086Z,19.79
2019-04-20T13:56:41.826Z,19.32
2019-04-20T13:59:21.995Z,18.69
2019-04-20T14:01:53.235Z,18.29
2019-04-20T14:04:24.277Z,18.00
2019-04-20T14:06:57.427Z,17.22
2019-04-20T14:09:29.739Z,17.12
2019-04-20T14:12:12.712Z,16.02
2019-04-20T14:14:31.038Z,15.53
2019-04-20T14:17:01.204Z,15.11
2019-04-20T14:19:31.445Z,14.71
2019-04-20T14:22:02.110Z,14.46
2019-04-20T14:24:33.054Z,14.47
2019-04-20T14:27:03.322Z,14.40
2019-04-20T14:29:32.867Z,14.22
2019-04-20T14:32:03.633Z,14.06
2019-04-20T14:34:33.321Z,14.02
2019-04-20T14:37:02.857Z,14.65
2019-04-20T14:39:32.364Z,14.46
2019-04-20T14:42:02.459Z,14.30
2019-04-20T14:44:32.126Z,14.28
2019-04-20T14:47:01.554Z,14.21
2019-04-20T14:49:31.016Z,14.21
2019-04-20T14:52:01.558Z,14.65
2019-04-20T14:57:01.269Z,15.20
2019-04-20T14:59:33.688Z,15.59
2019-04-20T15:02:10.885Z,15.60
2019-04-20T15:04:41.219Z,15.63
2019-04-20T15:07:10.917Z,15.39
2019-04-20T15:09:40.676Z,15.16
2019-04-20T15:12:10.923Z,14.80
2019-04-20T15:14:40.849Z,14.88
2019-04-20T15:17:11.923Z,14.54
2019-04-20T15:19:45.625Z,14.58
2019-04-20T15:22:31.814Z,14.50
2019-04-20T15:25:01.274Z,14.53
2019-04-20T15:27:30.681Z,14.78
2019-04-20T15:30:00.332Z,14.68
2019-04-20T15:32:31.237Z,14.73
2019-04-20T15:35:00.921Z,14.78
2019-04-20T15:37:30.958Z,14.73
2019-04-20T15:40:01.194Z,14.68
2019-04-20T15:42:30.627Z,14.57
2019-04-20T15:45:01.153Z,14.74
2019-04-20T15:47:31.966Z,14.74
2019-04-20T15:50:02.256Z,14.85
2019-04-20T15:52:39.963Z,14.82
2019-04-20T15:55:11.816Z,14.84
2019-04-20T15:57:34.911Z,14.73
2019-04-20T16:00:06.678Z,14.58
2019-04-20T16:02:39.044Z,14.49
2019-04-20T16:05:19.025Z,14.57
2019-04-20T16:07:53.484Z,14.47
2019-04-20T16:10:19.594Z,14.53
2019-04-20T16:13:02.965Z,14.42
2019-04-20T16:15:20.264Z,14.39
2019-04-20T16:17:53.013Z,14.32
2019-04-20T16:20:23.565Z,14.35
2019-04-20T16:22:52.269Z,14.27
2019-04-20T16:25:23.552Z,14.21
2019-04-20T16:27:53.836Z,14.27
2019-04-20T16:30:23.445Z,14.19
2019-04-20T16:32:52.868Z,14.13
2019-04-20T16:35:22.599Z,14.07
2019-04-20T16:37:52.697Z,13.87
2019-04-20T16:40:23.415Z,13.74
2019-04-20T16:42:54.227Z,13.71
2019-04-20T16:45:23.779Z,13.66
2019-04-20T16:47:54.407Z,13.46
2019-04-20T16:50:24.767Z,13.35
2019-04-20T16:52:54.965Z,13.25
2019-04-20T16:55:25.140Z,13.10
2019-04-20T16:57:55.539Z,13.12
2019-04-20T17:00:25.531Z,13.11
2019-04-20T17:02:56.169Z,13.08
2019-04-20T17:05:25.930Z,12.87
2019-04-20T17:07:58.337Z,12.83
2019-04-20T17:10:28.864Z,12.78
2019-04-20T17:12:59.804Z,12.68
2019-04-20T17:15:29.711Z,12.50
2019-04-20T17:17:58.967Z,12.37
2019-04-20T17:20:30.673Z,12.22
2019-04-20T17:23:02.110Z,12.09
2019-04-20T17:25:32.240Z,12.21
2019-04-20T17:28:20.687Z,12.20
2019-04-20T17:30:52.924Z,12.25
2019-04-20T17:33:53.381Z,12.28
2019-04-20T17:36:19.803Z,12.35
2019-04-20T17:38:52.603Z,12.31
2019-04-20T17:41:43.030Z,12.25
2019-04-20T17:44:05.841Z,12.30
2019-04-20T17:46:35.791Z,12.00
2019-04-20T17:49:09.281Z,11.83
2019-04-20T17:51:47.569Z,11.82
2019-04-20T17:54:06.974Z,11.64
2019-04-20T17:56:36.241Z,11.70
2019-04-20T17:59:06.118Z,11.66
2019-04-20T18:02:07.870Z,11.62
2019-04-20T18:04:54.908Z,11.57
2019-04-20T18:07:18.305Z,11.49
2019-04-20T18:09:49.286Z,11.46
2019-04-20T18:12:06.247Z,11.44
2019-04-20T18:14:46.069Z,11.39
2019-04-20T18:17:17.880Z,11.24
2019-04-20T18:19:55.107Z,11.16
2019-04-20T18:22:25.763Z,11.05
2019-04-20T18:25:14.700Z,10.96
2019-04-20T18:27:41.561Z,10.83
2019-04-20T18:30:15.520Z,10.79
2019-04-20T18:35:18.755Z,10.37
2019-04-20T18:37:53.628Z,10.20
2019-04-20T18:40:29.010Z,10.13
2019-04-20T18:43:06.363Z,10.07
2019-04-20T18:45:33.740Z,9.95
2019-04-20T18:48:14.658Z,9.98
2019-04-20T18:50:32.865Z,10.07
2019-04-20T18:52:55.891Z,10.09
2019-04-20T18:55:36.527Z,10.03
2019-04-20T18:57:57.279Z,9.97
2019-04-20T19:00:32.459Z,9.78
2019-04-20T19:03:11.140Z,9.57
2019-04-20T19:05:29.583Z,9.51
2019-04-20T19:08:03.368Z,9.51
2019-04-20T19:10:35.008Z,9.57
2019-04-20T19:13:06.241Z,9.54
2019-04-20T19:16:03.583Z,9.47
2019-04-20T19:18:45.226Z,9.48
2019-04-20T19:24:00.277Z,9.21
2019-04-20T19:26:25.603Z,9.10
2019-04-20T19:28:59.402Z,9.20
2019-04-20T19:31:42.721Z,9.26
2019-04-20T19:34:15.337Z,9.29
2019-04-20T19:36:36.774Z,9.31
2019-04-20T19:39:17.258Z,9.33
2019-04-20T19:41:42.250Z,9.35
2019-04-20T19:44:13.579Z,9.20
2019-04-20T19:47:03.295Z,9.11
2019-04-20T19:49:19.265Z,9.03
2019-04-20T19:52:02.889Z,9.04
2019-04-20T19:54:29.988Z,9.03
2019-04-20T19:56:56.324Z,9.04
2019-04-20T19:59:19.821Z,9.06
2019-04-20T20:01:40.319Z,9.08
2019-04-20T20:04:11.511Z,9.10
2019-04-20T20:06:47.250Z,9.05
2019-04-20T20:09:13.343Z,8.91
2019-04-20T20:11:45.008Z,8.92
2019-04-20T20:14:17.960Z,8.94
2019-04-20T20:17:04.169Z,8.99
2019-04-20T20:19:32.342Z,8.98
2019-04-20T20:22:02.297Z,8.99
2019-04-20T20:24:19.656Z,8.95
2019-04-20T20:26:56.357Z,8.87
2019-04-20T20:29:30.524Z,8.72
2019-04-20T20:32:05.263Z,8.75
2019-04-20T20:34:31.094Z,8.75
2019-04-20T20:37:01.786Z,8.71
2019-04-20T20:39:31.070Z,8.67
2019-04-20T20:42:12.869Z,8.68
2019-04-20T20:44:42.804Z,8.60
2019-04-20T20:47:21.788Z,8.56
2019-04-20T20:49:58.511Z,8.55
2019-04-20T20:52:22.023Z,8.47
2019-04-20T20:54:46.325Z,8.45
2019-04-20T20:57:12.690Z,8.48
2019-04-20T20:59:48.203Z,8.44
2019-04-20T21:02:18.001Z,8.48
2019-04-20T21:04:39.530Z,8.53
2019-04-20T21:07:10.972Z,8.56
2019-04-20T21:09:41.826Z,8.59
2019-04-20T21:12:15.906Z,8.58
2019-04-20T21:14:44.121Z,8.59
2019-04-20T21:17:18.446Z,8.58
2019-04-20T21:19:58.183Z,8.52
2019-04-20T21:22:32.449Z,8.47
2019-04-20T21:24:52.963Z,8.47
2019-04-20T21:27:23.943Z,8.35
2019-04-20T21:29:57.855Z,8.29
2019-04-20T21:32:26.156Z,8.24
2019-04-20T21:35:01.263Z,8.18
2019-04-20T21:37:27.292Z,8.13
2019-04-20T21:40:00.550Z,8.06
2019-04-20T21:42:34.788Z,7.89
2019-04-20T21:45:07.706Z,7.35
2019-04-20T21:47:34.671Z,7.13
2019-04-20T21:50:18.734Z,6.95
2019-04-20T21:52:40.773Z,6.93
2019-04-20T21:55:04.228Z,6.76
2019-04-20T21:57:42.064Z,6.78
2019-04-20T22:00:16.812Z,6.75
2019-04-20T22:02:48.573Z,6.79
2019-04-20T22:05:11.426Z,6.80
2019-04-20T22:07:40.770Z,6.77
2019-04-20T22:10:11.675Z,6.78
2019-04-20T22:12:47.592Z,6.71
2019-04-20T22:15:22.077Z,6.63
2019-04-20T22:17:42.783Z,6.69
2019-04-20T22:20:22.775Z,6.71
2019-04-20T22:22:57.151Z,6.73
2019-04-20T22:25:36.339Z,6.78
2019-04-20T22:27:44.323Z,6.87
2019-04-20T22:30:14.402Z,6.70
2019-04-20T22:32:46.989Z,6.68
2019-04-20T22:35:16.241Z,6.63
2019-04-20T22:38:06.989Z,6.59
2019-04-20T22:40:35.217Z,6.54
2019-04-20T22:43:04.293Z,6.48
2019-04-20T22:45:35.133Z,6.39
2019-04-20T22:48:08.203Z,6.44
2019-04-20T22:50:51.053Z,6.15
2019-04-20T22:53:17.938Z,6.12
2019-04-20T22:56:00.379Z,5.92
2019-04-20T22:58:25.009Z,5.96
2019-04-20T23:00:46.740Z,6.04
2019-04-20T23:03:07.237Z,6.00
2019-04-20T23:05:36.571Z,5.92
2019-04-20T23:08:06.713Z,5.89
2019-04-20T23:10:39.996Z,5.85
2019-04-20T23:13:07.366Z,5.88
2019-04-20T23:15:36.380Z,5.90
2019-04-20T23:18:06.334Z,5.87
2019-04-20T23:20:38.485Z,5.89
2019-04-20T23:23:07.198Z,5.90
2019-04-20T23:25:36.507Z,5.90
2019-04-20T23:28:10.189Z,5.80
2019-04-20T23:30:39.359Z,5.63
2019-04-20T23:33:07.780Z,5.72
2019-04-20T23:35:37.568Z,5.74
2019-04-20T23:38:11.061Z,5.72
2019-04-20T23:40:37.773Z,5.73
2019-04-20T23:43:17.664Z,5.68
2019-04-20T23:45:57.136Z,5.64
2019-04-20T23:48:32.409Z,5.60
2019-04-20T23:51:09.934Z,5.54
2019-04-20T23:53:45.518Z,5.47
2019-04-20T23:55:59.594Z,5.47
2019-04-20T23:58:30.979Z,5.41
